Strausstown, Pennsylvania
Current Conditions -  °F | °C
As of 4:54 PM on Sunday 23 Nov 2014 (Local Time) from KRDG Reporting Station
Clear Clear  
Wind Chill: 52°   Ceiling: Unl
Heat Index: 52°   Visibility: 10mi
Dew Point: 23°   Wind: 6mph
Humidity: 32%   Direction: 170°S
Pressure: 30.08"   Gusts: NA
Location:  40.49°N, 76.18°W
Report Text: KRDG 232154Z AUTO 17005KT 10SM CLR 11/M05 A3008 RMK AO2 SLP193 T01111050
Loading
Personal Weather Stations






























Interactive Weather Map New forecast layout! Learn more

10-Day Weather Forecast

Advertisements
Track Severe Weather on mobile